Latest Weather Observations for Wilsons Promontory

IDV60801

Issued at 5:52 am EST Sunday 22 September 2019 (issued every 10 minutes, with the page automatically refreshed every 10 minutes)

About weather observations | Map of weather stations | Latest weather observations for VIC | Other Formats
Station Details ID: 085096 Name: WILSONS PROMONTORY LIGHTHOUSE Lat: -39.13 Lon: 146.42 Height: 95.0 m
Data from the previous 72 hours. | See also: Recent months at Wilsons Promontory
Date/Time
EST
Temp
°C
App
Temp
°C
Dew
Point
°C
Rel
Hum
%
Delta-T
°C
Wind Press
QNH
hPa
Press
MSL
hPa
Rain since
9am
mm
Dir  Spd
km/h
Gust
km/h
Spd
kts
Gust
kts
22/05:30am 8.5 1.3 4.9 78 1.6 W 32 52 17 28 1018.4 - 5.2
22/05:02am 9.8 3.0 5.0 72 2.2 W 30 48 16 26 1017.5 - 4.4
22/05:00am 9.9 3.5 5.1 72 2.2 W 28 37 15 20 1017.6 - 4.4
22/04:30am 10.0 3.2 5.0 71 2.3 W 30 44 16 24 1017.4 - 4.4
22/04:00am 9.8 3.0 5.0 72 2.2 W 30 41 16 22 1017.1 - 4.4
22/03:36am 9.8 2.4 5.2 73 2.1 W 33 52 18 28 1017.1 - 4.4
22/03:30am 9.7 2.0 5.5 75 1.9 W 35 52 19 28 1016.8 - 4.4
22/03:14am 9.7 3.1 6.1 78 1.7 W 30 48 16 26 1016.7 - 4.4
22/03:00am 9.5 2.4 6.4 81 1.4 W 33 46 18 25 1016.9 1017.0 4.4
22/02:42am 9.2 2.7 6.6 84 1.2 W 30 48 16 26 1016.8 - 4.4
22/02:30am 8.7 1.5 6.0 83 1.2 W 33 50 18 27 1016.7 - 4.4
22/02:00am 9.8 2.3 6.2 78 1.7 W 35 54 19 29 1016.4 - 4.2
22/01:30am 9.7 2.3 6.6 81 1.5 W 35 54 19 29 1016.5 - 4.2
22/01:00am 10.3 3.6 7.2 81 1.5 W 32 44 17 24 1016.3 - 4.0
22/12:33am 10.1 2.7 6.6 79 1.6 W 35 54 19 29 1016.0 - 4.0
22/12:30am 10.1 2.7 6.6 79 1.6 W 35 48 19 26 1016.0 - 4.0
22/12:03am 10.6 3.2 6.9 78 1.8 W 35 54 19 29 1015.6 - 4.0
22/12:00am 10.7 2.9 6.8 77 1.8 W 37 46 20 25 1015.6 1015.7 4.0
 
Date/Time
EST
Temp
°C
App
Temp
°C
Dew
Point
°C
Rel
Hum
%
Delta-T
°C
Wind Press
QNH
hPa
Press
MSL
hPa
Rain since
9am
mm
Dir  Spd
km/h
Gust
km/h
Spd
kts
Gust
kts
21/11:43pm 10.8 3.8 6.7 76 1.9 W 33 52 18 28 1015.5 - 4.0
21/11:30pm 10.8 4.0 6.7 76 1.9 W 32 46 17 25 1015.5 - 4.0
21/11:00pm 10.7 3.2 6.5 75 2.0 W 35 54 19 29 1015.5 - 4.0
21/10:30pm 10.6 2.4 6.6 76 1.9 W 39 59 21 32 1015.1 - 4.0
21/10:00pm 10.9 2.0 6.8 76 1.9 W 43 65 23 35 1014.4 - 4.0
21/09:30pm 10.8 1.9 6.9 77 1.9 W 43 70 23 38 1013.8 - 4.0
21/09:00pm 10.8 -0.2 6.7 76 1.9 W 54 80 29 43 1013.2 1013.3 4.0
21/08:57pm 10.9 -0.7 6.8 76 1.9 W 57 80 31 43 1012.8 - 4.0
21/08:53pm 10.8 3.4 6.7 76 1.9 WNW 35 74 19 40 1013.1 - 4.0
21/08:52pm 10.8 3.8 6.7 76 1.9 WNW 33 74 18 40 1013.1 - 4.0
21/08:30pm 11.1 -0.3 7.4 78 1.8 W 57 83 31 45 1012.6 - 4.0
21/08:00pm 11.0 -0.7 7.7 80 1.6 W 59 83 32 45 1012.1 - 4.0
21/07:30pm 11.0 1.3 7.5 79 1.7 W 48 72 26 39 1012.4 - 4.0
21/07:03pm 11.2 2.1 8.4 83 1.4 W 46 65 25 35 1012.2 - 4.0
21/07:00pm 11.2 1.3 8.4 83 1.4 W 50 65 27 35 1012.1 - 4.0
21/06:30pm 11.7 2.4 9.1 84 1.3 W 48 74 26 40 1011.2 - 4.0
21/06:00pm 11.8 1.3 9.0 83 1.4 W 54 80 29 43 1010.4 1010.5 4.0
21/05:30pm 12.1 3.6 9.3 83 1.4 W 44 65 24 35 1009.9 - 4.0
21/05:00pm 12.4 3.5 9.2 81 1.6 W 46 70 25 38 1009.8 - 4.0
21/04:33pm 12.6 3.3 9.2 80 1.7 W 48 70 26 38 1008.0 - 4.0
21/04:30pm 12.5 3.2 9.1 80 1.7 W 48 65 26 35 1008.2 - 4.0
21/04:00pm 14.5 4.4 8.9 69 2.9 W 52 85 28 46 1007.2 - 4.0
21/03:52pm 15.2 8.1 9.6 69 2.9 W 37 78 20 42 1007.5 - 4.0
21/03:35pm 15.3 10.0 9.7 69 2.9 W 28 54 15 29 1007.3 - 4.0
21/03:30pm 15.2 10.6 9.8 70 2.8 W 24 50 13 27 1007.5 - 4.0
21/03:21pm 15.2 9.9 10.0 71 2.7 WNW 28 54 15 29 1007.6 - 4.0
21/03:00pm 15.3 12.3 10.7 74 2.5 W 17 43 9 23 1007.4 1007.5 4.0
21/02:30pm 14.9 11.5 11.3 79 1.9 W 20 54 11 29 1006.9 - 4.0
21/02:00pm 13.3 9.9 10.7 84 1.4 NNW 19 63 10 34 1006.5 - 4.0
21/01:36pm 14.6 8.4 10.0 74 2.4 W 33 91 18 49 1007.3 - 2.0
21/01:30pm 15.0 3.5 10.0 72 2.6 W 61 91 33 49 1006.4 - 1.4
21/01:29pm 15.2 8.2 10.0 71 2.7 W 37 91 20 49 1006.7 - 1.2
21/01:18pm 17.3 12.1 10.4 64 3.7 W 28 50 15 27 1006.5 - 0.0
21/01:00pm 19.4 16.2 11.2 59 4.5 WNW 19 26 10 14 1005.8 - 0.0
21/12:30pm 19.3 14.3 11.1 59 4.5 NNW 28 43 15 23 1005.8 - 0.0
21/12:18pm 18.3 12.0 11.1 63 3.9 NW 35 48 19 26 1005.7 - 0.0
21/12:00pm 17.9 10.8 10.8 63 3.9 WNW 39 52 21 28 1005.2 1005.3 0.0
21/11:55am 18.2 12.5 11.0 63 3.9 WNW 32 50 17 27 1005.5 - 0.0
21/11:30am 21.0 16.0 11.1 53 5.5 N 28 43 15 23 1005.2 - 0.0
21/11:00am 20.0 14.5 12.3 61 4.3 NW 33 54 18 29 1005.2 - 0.0
21/10:57am 19.4 13.3 11.9 62 4.2 NW 35 54 19 29 1005.2 - 0.0
21/10:50am 19.2 12.6 11.3 60 4.3 WNW 37 50 20 27 1005.7 - 0.0
21/10:34am 23.9 18.5 9.5 40 7.9 N 28 50 15 27 1005.6 - 0.0
21/10:30am 23.7 19.2 10.0 42 7.5 N 24 41 13 22 1005.3 - 0.0
21/10:00am 23.2 18.4 10.3 44 7.1 N 26 41 14 22 1005.6 - 0.0
21/09:30am 23.2 17.8 9.6 42 7.4 NNE 28 43 15 23 1005.2 - 0.0
21/09:00am 23.5 17.3 9.5 41 7.6 N 32 50 17 27 1005.9 1005.9 0.0
21/08:33am 23.1 18.5 12.4 51 6.1 N 28 52 15 28 1005.7 - 0.0
21/08:30am 22.3 18.3 14.2 60 4.8 N 28 44 15 24 1005.8 - 0.0
21/08:27am 22.1 18.0 15.0 64 4.2 N 30 46 16 25 1005.8 - 0.0
21/08:10am 17.1 13.1 14.2 83 1.7 N 28 46 15 25 1005.3 - 0.0
21/08:00am 13.9 9.3 11.2 84 1.4 NNE 26 41 14 22 1005.9 - 0.0
21/07:30am 14.2 8.3 11.0 81 1.7 NNE 33 41 18 22 1005.0 - 0.0
21/07:00am 14.5 8.5 10.9 79 1.9 NNE 33 41 18 22 1005.8 - 0.0
21/06:30am 15.1 9.0 10.5 74 2.4 NNE 33 44 18 24 1006.4 - 0.0
21/06:00am 16.0 8.8 10.7 71 2.8 NNE 39 57 21 31 1006.1 1006.1 0.0
21/05:30am 16.9 10.1 10.7 67 3.3 NNE 37 57 20 31 1006.5 - 0.0
21/05:00am 17.1 10.3 10.7 66 3.4 NNE 37 63 20 34 1006.9 - 0.0
21/04:30am 17.5 11.0 10.4 63 3.8 NNE 35 54 19 29 1007.2 - 0.0
21/04:25am 17.5 11.3 10.1 62 3.9 NNE 33 54 18 29 1007.0 - 0.0
21/04:00am 17.9 11.9 10.0 60 4.2 NNE 32 46 17 25 1007.5 - 0.0
21/03:30am 17.7 11.7 10.1 61 4.0 NNE 32 46 17 25 1008.0 - 0.0
21/03:00am 17.4 12.5 11.2 67 3.4 NNE 28 48 15 26 1008.6 1008.7 0.0
21/02:55am 17.3 12.3 12.2 72 2.8 NNE 30 48 16 26 1008.6 - 0.0
21/02:30am 15.1 10.0 13.1 88 1.1 NNE 32 43 17 23 1008.9 - 0.0
21/02:00am 13.8 8.9 12.4 91 0.8 NNE 30 39 16 21 1009.4 - 0.0
21/01:30am 13.3 7.8 11.7 90 0.9 NNE 32 35 17 19 1010.0 - 0.0
21/01:00am 13.2 9.5 11.4 89 1.0 NNE 22 26 12 14 1010.7 - 0.0
21/12:30am 13.3 9.1 11.0 86 1.2 NNE 24 32 13 17 1011.2 - 0.0
21/12:00am 13.9 9.7 11.1 83 1.5 NE 24 26 13 14 1011.5 1011.6 0.0
 
Date/Time
EST
Temp
°C
App
Temp
°C
Dew
Point
°C
Rel
Hum
%
Delta-T
°C
Wind Press
QNH
hPa
Press
MSL
hPa
Rain since
9am
mm
Dir  Spd
km/h
Gust
km/h
Spd
kts
Gust
kts
20/11:30pm 14.4 10.6 11.0 80 1.8 NNE 22 26 12 14 1011.9 - 0.0
20/11:00pm 14.9 11.5 11.3 79 1.9 NNE 20 24 11 13 1012.6 - 0.0
20/10:30pm 14.2 9.3 9.8 75 2.3 NE 26 30 14 16 1012.8 - 0.0
20/10:00pm 14.9 9.6 9.7 71 2.7 NNE 28 32 15 17 1013.2 - 0.0
20/09:30pm 18.4 14.6 9.7 57 4.6 NNE 20 30 11 16 1013.6 - 0.0
20/09:00pm 19.9 16.1 9.2 50 5.7 NNE 19 28 10 15 1014.1 1014.2 0.0
20/08:30pm 19.9 15.9 8.9 49 5.8 NNE 20 33 11 18 1014.3 - 0.0
20/08:00pm 19.5 15.1 8.8 50 5.6 NNE 22 32 12 17 1014.4 - 0.0
20/07:30pm 19.4 14.6 8.7 50 5.6 NNE 24 35 13 19 1014.5 - 0.0
20/07:00pm 19.3 14.0 8.6 50 5.6 NNE 26 37 14 20 1014.3 - 0.0
20/06:30pm 18.2 13.4 9.0 55 4.8 NNE 24 30 13 16 1014.3 - 0.0
20/06:00pm 19.3 14.9 8.9 51 5.5 NNE 22 30 12 16 1014.4 1014.5 0.0
20/05:30pm 19.3 15.0 9.2 52 5.3 NNE 22 32 12 17 1014.4 - 0.0
20/05:00pm 18.8 14.3 10.1 57 4.7 NNE 24 33 13 18 1014.5 - 0.0
20/04:30pm 15.7 11.4 10.7 72 2.7 NNE 24 28 13 15 1014.6 - 0.0
20/04:00pm 17.7 13.5 11.0 65 3.6 NNE 24 28 13 15 1014.7 - 0.0
20/03:30pm 17.5 13.7 11.1 66 3.5 NNE 22 28 12 15 1014.8 - 0.0
20/03:00pm 18.5 14.1 11.6 64 3.8 NNE 26 28 14 15 1015.0 1015.1 0.0
20/02:30pm 15.4 11.3 11.6 78 2.1 NNE 24 26 13 14 1015.3 - 0.0
20/02:00pm 15.8 11.3 11.4 75 2.4 NNE 26 28 14 15 1015.7 - 0.0
20/01:30pm 15.4 11.1 10.6 73 2.5 NNE 24 28 13 15 1016.0 - 0.0
20/01:00pm 16.6 13.3 10.9 69 3.1 NNE 19 20 10 11 1016.4 - 0.0
20/12:30pm 17.9 15.6 11.9 68 3.3 NNE 15 19 8 10 1016.7 - 0.0
20/12:00pm 17.8 14.3 10.2 61 4.1 NNE 19 30 10 16 1017.1 1017.2 0.0
20/11:30am 20.9 19.7 10.4 51 5.7 WSW 7 15 4 8 1017.4 - 0.0
20/11:00am 20.4 19.5 11.3 56 5.0 WNW 7 11 4 6 1017.5 - 0.0
20/10:30am 20.5 19.5 12.2 59 4.7 ENE 9 11 5 6 1017.4 - 0.0
20/10:00am 17.9 16.2 11.2 65 3.6 N 11 17 6 9 1017.7 - 0.0
20/09:30am 17.4 16.1 11.2 67 3.4 N 9 17 5 9 1017.9 - 0.0
20/09:00am 18.7 18.4 12.7 68 3.4 NNE 6 11 3 6 1017.9 1018.0 0.0
20/08:30am 16.4 14.0 11.3 72 2.8 NNE 15 17 8 9 1017.9 - 0.0
20/08:00am 15.3 11.7 10.5 73 2.5 NNE 20 24 11 13 1018.0 - 0.0
20/07:30am 15.4 11.8 10.4 72 2.6 NNE 20 28 11 15 1018.0 - 0.0
20/07:00am 16.1 12.7 10.4 69 3.0 NNE 19 24 10 13 1017.9 - 0.0
20/06:30am 15.4 11.6 8.9 65 3.3 N 19 26 10 14 1017.8 - 0.0
20/06:00am 18.0 16.8 9.6 58 4.4 N 6 11 3 6 1017.7 1017.8 0.0
20/05:30am 17.0 14.7 10.4 65 3.5 N 13 17 7 9 1017.4 - 0.0
20/05:00am 16.3 12.9 10.4 68 3.1 NNE 19 20 10 11 1016.9 - 0.0
20/04:30am 15.1 11.9 11.1 77 2.1 NNE 19 20 10 11 1016.6 - 0.0
20/04:00am 14.3 10.4 10.9 80 1.8 NNE 22 24 12 13 1016.4 - 0.0
20/03:30am 14.0 10.0 10.6 80 1.8 NNE 22 24 12 13 1016.3 - 0.0
20/03:00am 15.0 12.0 10.8 76 2.2 NE 17 19 9 10 1016.3 1016.4 0.0
20/02:30am 14.4 10.9 11.0 80 1.8 NNE 20 24 11 13 1016.3 - 0.0
20/02:00am 14.9 11.2 10.3 74 2.4 NNE 20 24 11 13 1016.4 - 0.0
20/01:30am 15.3 11.3 10.3 72 2.6 NNE 22 28 12 15 1016.5 - 0.0
20/01:00am 16.7 13.4 10.8 68 3.2 NNE 19 22 10 12 1016.8 - 0.0
20/12:30am 16.1 12.7 11.1 72 2.7 NNE 20 28 11 15 1017.0 - 0.0
20/12:00am 16.4 12.8 13.1 81 1.8 NNE 24 33 13 18 1016.9 1017.0 0.0
 
Date/Time
EST
Temp
°C
App
Temp
°C
Dew
Point
°C
Rel
Hum
%
Delta-T
°C
Wind Press
QNH
hPa
Press
MSL
hPa
Rain since
9am
mm
Dir  Spd
km/h
Gust
km/h
Spd
kts
Gust
kts
19/11:30pm 14.3 10.0 12.2 87 1.1 NNE 26 32 14 17 1016.7 - 0.0
19/11:00pm 14.1 6.9 11.8 86 1.2 NNE 41 48 22 26 1015.9 - 0.0
19/10:30pm 14.7 8.7 12.2 85 1.4 NNE 35 44 19 24 1016.3 - 0.0
19/10:00pm 14.4 8.7 11.9 85 1.4 NNE 33 39 18 21 1016.7 - 0.0
19/09:30pm 15.1 9.2 12.4 84 1.5 NNE 35 46 19 25 1016.7 - 0.0
19/09:00pm 14.9 8.2 12.2 84 1.5 NNE 39 50 21 27 1016.8 1016.9 0.0
19/08:30pm 15.1 8.3 11.9 81 1.7 NNE 39 54 21 29 1016.9 - 0.0
19/08:00pm 15.8 10.9 12.4 80 1.9 NNE 30 48 16 26 1017.2 - 0.0
19/07:59pm 15.8 10.9 12.4 80 1.9 NNE 30 48 16 26 1017.2 - 0.0
19/07:30pm 14.8 8.8 12.1 84 1.5 NNE 35 44 19 24 1017.4 - 0.0
19/07:00pm 14.9 10.2 11.9 82 1.6 NNE 28 35 15 19 1017.9 - 0.0
19/06:30pm 15.1 9.5 12.1 82 1.6 NNE 33 44 18 24 1017.9 - 0.0
19/06:00pm 15.0 9.5 12.0 82 1.6 NNE 32 44 17 24 1018.1 1018.2 0.0
19/05:30pm 14.6 9.3 11.2 80 1.8 NNE 30 43 16 23 1018.1 - 0.0
19/05:00pm 14.4 8.9 10.6 78 2.0 NNE 30 39 16 21 1018.5 - 0.0
19/04:30pm 14.8 9.2 10.0 73 2.5 NNE 30 41 16 22 1018.6 - 0.0
19/04:00pm 14.8 10.2 9.8 72 2.6 NNE 24 33 13 18 1019.0 - 0.0
19/03:30pm 14.3 8.5 9.3 72 2.6 NNE 30 37 16 20 1019.2 - 0.0
19/03:00pm 14.5 9.4 9.1 70 2.8 NNE 26 35 14 19 1019.6 1019.7 0.0
19/02:30pm 13.8 8.0 9.5 75 2.2 NNE 30 35 16 19 1019.9 - 0.0
19/02:00pm 13.8 8.4 9.5 75 2.2 NNE 28 33 15 18 1020.2 - 0.0
19/01:30pm 13.9 8.8 9.1 73 2.4 NE 26 33 14 18 1020.4 - 0.0
19/01:00pm 14.3 9.4 9.9 75 2.3 NNE 26 32 14 17 1020.7 - 0.0
19/12:30pm 14.1 9.2 9.9 76 2.2 NNE 26 33 14 18 1021.2 - 0.0
19/12:00pm 14.2 8.9 9.8 75 2.3 NNE 28 33 15 18 1021.4 1021.5 0.0
19/11:30am 14.6 10.9 10.0 74 2.4 NNE 20 28 11 15 1021.9 - 0.0
19/11:00am 14.9 11.1 9.7 71 2.7 NNE 20 28 11 15 1022.6 - 0.0
19/10:30am 15.1 11.4 9.5 69 2.9 NNE 19 24 10 13 1023.0 - 0.0
19/10:00am 14.9 10.7 8.4 65 3.3 NE 20 26 11 14 1023.4 - 0.0
19/09:30am 15.7 12.1 8.4 62 3.7 NE 17 20 9 11 1023.7 - 0.0
19/09:00am 15.4 11.7 9.3 67 3.1 NNE 19 22 10 12 1024.0 1024.1 0.0
19/08:30am 14.6 10.6 9.2 70 2.8 NNE 20 26 11 14 1024.0 - 0.0
19/08:00am 14.0 10.6 10.4 79 1.9 NNE 19 22 10 12 1024.1 - 0.0
19/07:30am 13.2 9.6 10.7 85 1.3 NNE 20 26 11 14 1023.9 - 0.0
19/07:00am 12.4 8.8 10.5 88 1.0 NE 20 24 11 13 1023.9 - 0.0
19/06:30am 11.2 6.9 9.3 88 1.0 NE 22 24 12 13 1023.8 - 0.0
19/06:00am 10.7 6.6 8.5 86 1.1 NNE 20 24 11 13 1023.8 1023.9 0.0

Other formats

Comma delimited format used in spreadsheet applications
http://www.bom.gov.au/fwo/IDV60801/IDV60801.94893.axf

JavaScript Object Notation format (JSON) in row-major order
http://www.bom.gov.au/fwo/IDV60801/IDV60801.94893.json

Data quality

Most of these data are generated automatically and are frequently updated. Quality checks on data are not normally performed. It is possible for incorrect values to appear. Refer to information at About Latest Weather Observations and please check the disclaimer before using these data.